Portada
METAR-TAF:

METAR-TAF

Aeropuertos :

Túnez, Túnez

Aeropuerto Internacional de Túnez-Cartago

latitud: 36-50N, longitud: 010-14E, altitud: 3 m

Observación

El informe se hizo hace 33 minutos, a las 06:30 UTC
Viento calma
Temperatura 27°C
Humedad 51%
Presión 1019 hPa
Visibilidad 10 km o más
Escasas nubes a una altura de 3000 ft

METAR: DTTA 240630Z 00000KT 9999 FEW030 27/16 Q1019 NOSIG

Hora: 08:03 (07:03 UTC)

Pronóstico

El informe se hizo hace 13 horas y 23 minutos, a las 17:40 UTC
Pronóstico válido del 23 a las 18 UTC al 24 a las 18 UTC
Viento 6 kt del noreste
Visibilidad 10 km o más
sin nubes por debajo de 1500 m y sin presencia de cumulonimbus.

TAF: DTTA 231740Z 2318/2418 04006KT CAVOK

Observaciones y pronósticos meteorológicos de más de 4000 aeropuertos (mensajes METAR y TAF).

Los puntos amarillos y rojos representan las estaciones disponibles.

Ponga el ratón en el punto deseado para ver el nombre de la estación.

Haga clic para ver las observaciones y los pronósticos meteorológicos.

Para cambiar el mapa : haga clic en los botones verdes con una cruz de color negro para hacer un zoom, en el botón verde con un guión para alejar o en las flechas verdes para mapas adyacentes.


METAR-TAF: